sensor_id;sensor_type;location;lat;lon;timestamp;pressure;altitude;pressure_sealevel;temperature;humidity
53041;BME280;39326;42.650;23.248;2023-06-10T00:01:56;92245.16;;;16.07;87.20
53041;BME280;39326;42.650;23.248;2023-06-10T00:04:25;92251.28;;;16.07;86.79
53041;BME280;39326;42.650;23.248;2023-06-10T00:06:51;92247.59;;;16.01;87.32
53041;BME280;39326;42.650;23.248;2023-06-10T00:09:17;92245.25;;;16.03;86.64
53041;BME280;39326;42.650;23.248;2023-06-10T00:11:43;92248.03;;;15.99;86.52
53041;BME280;39326;42.650;23.248;2023-06-10T00:14:09;92247.59;;;16.01;86.63
53041;BME280;39326;42.650;23.248;2023-06-10T00:16:35;92255.75;;;15.97;86.86
53041;BME280;39326;42.650;23.248;2023-06-10T00:19:02;92251.06;;;16.02;86.86
53041;BME280;39326;42.650;23.248;2023-06-10T00:21:29;92250.28;;;16.01;86.55
53041;BME280;39326;42.650;23.248;2023-06-10T00:23:55;92249.88;;;16.03;86.51
53041;BME280;39326;42.650;23.248;2023-06-10T00:26:23;92243.06;;;15.98;87.21
53041;BME280;39326;42.650;23.248;2023-06-10T00:28:49;92249.53;;;16.01;87.07
53041;BME280;39326;42.650;23.248;2023-06-10T00:31:15;92243.50;;;15.96;87.00
53041;BME280;39326;42.650;23.248;2023-06-10T00:33:41;92243.16;;;15.94;86.97
53041;BME280;39326;42.650;23.248;2023-06-10T00:36:06;92241.97;;;15.95;86.83
53041;BME280;39326;42.650;23.248;2023-06-10T00:38:32;92238.13;;;15.96;86.83
53041;BME280;39326;42.650;23.248;2023-06-10T00:40:58;92239.72;;;15.94;87.16
53041;BME280;39326;42.650;23.248;2023-06-10T00:43:23;92237.78;;;15.94;87.67
53041;BME280;39326;42.650;23.248;2023-06-10T00:45:50;92239.78;;;15.90;88.17
53041;BME280;39326;42.650;23.248;2023-06-10T00:48:17;92240.28;;;15.85;88.49
53041;BME280;39326;42.650;23.248;2023-06-10T00:50:42;92236.34;;;15.90;88.34
53041;BME280;39326;42.650;23.248;2023-06-10T00:53:09;92245.50;;;15.92;88.07
53041;BME280;39326;42.650;23.248;2023-06-10T00:55:35;92237.84;;;15.91;87.95
53041;BME280;39326;42.650;23.248;2023-06-10T00:58:01;92245.09;;;15.94;88.42
53041;BME280;39326;42.650;23.248;2023-06-10T01:00:27;92245.59;;;15.89;88.83
53041;BME280;39326;42.650;23.248;2023-06-10T01:02:53;92250.06;;;15.95;88.32
53041;BME280;39326;42.650;23.248;2023-06-10T01:05:19;92243.16;;;15.94;88.38
53041;BME280;39326;42.650;23.248;2023-06-10T01:10:51;92255.13;;;15.93;88.43
53041;BME280;39326;42.650;23.248;2023-06-10T01:13:18;92253.09;;;15.81;89.71
53041;BME280;39326;42.650;23.248;2023-06-10T01:15:49;92256.53;;;15.82;89.83
53041;BME280;39326;42.650;23.248;2023-06-10T01:18:15;92259.88;;;15.86;88.99
53041;BME280;39326;42.650;23.248;2023-06-10T01:20:42;92261.47;;;15.83;89.54
53041;BME280;39326;42.650;23.248;2023-06-10T01:23:09;92263.22;;;15.90;89.33
53041;BME280;39326;42.650;23.248;2023-06-10T01:25:38;92258.28;;;15.88;90.10
53041;BME280;39326;42.650;23.248;2023-06-10T01:28:17;92255.50;;;15.92;89.71
53041;BME280;39326;42.650;23.248;2023-06-10T01:31:00;92250.47;;;15.94;89.83
53041;BME280;39326;42.650;23.248;2023-06-10T01:33:29;92264.50;;;15.85;90.34
53041;BME280;39326;42.650;23.248;2023-06-10T01:35:57;92249.38;;;15.91;89.72
53041;BME280;39326;42.650;23.248;2023-06-10T01:38:26;92246.34;;;15.89;90.37
53041;BME280;39326;42.650;23.248;2023-06-10T01:40:53;92249.63;;;15.81;90.24
53041;BME280;39326;42.650;23.248;2023-06-10T01:43:20;92247.84;;;15.90;89.66
53041;BME280;39326;42.650;23.248;2023-06-10T01:45:46;92251.78;;;15.86;89.56
53041;BME280;39326;42.650;23.248;2023-06-10T01:48:12;92254.09;;;15.87;89.34
53041;BME280;39326;42.650;23.248;2023-06-10T01:50:37;92254.84;;;15.88;89.46
53041;BME280;39326;42.650;23.248;2023-06-10T01:53:04;92247.84;;;15.90;89.21
53041;BME280;39326;42.650;23.248;2023-06-10T01:55:30;92244.34;;;15.93;89.24
53041;BME280;39326;42.650;23.248;2023-06-10T01:57:55;92240.97;;;15.89;89.80
53041;BME280;39326;42.650;23.248;2023-06-10T02:00:21;92236.94;;;15.81;90.19
53041;BME280;39326;42.650;23.248;2023-06-10T02:02:46;92236.00;;;15.88;89.71
53041;BME280;39326;42.650;23.248;2023-06-10T02:05:12;92237.03;;;15.94;89.49
53041;BME280;39326;42.650;23.248;2023-06-10T02:07:37;92235.00;;;15.98;89.30
53041;BME280;39326;42.650;23.248;2023-06-10T02:10:04;92229.97;;;16.00;88.98
53041;BME280;39326;42.650;23.248;2023-06-10T02:12:29;92228.03;;;16.01;88.47
53041;BME280;39326;42.650;23.248;2023-06-10T02:14:54;92231.47;;;16.01;88.14
53041;BME280;39326;42.650;23.248;2023-06-10T02:17:20;92228.03;;;16.01;87.94
53041;BME280;39326;42.650;23.248;2023-06-10T02:19:45;92217.69;;;15.99;88.12
53041;BME280;39326;42.650;23.248;2023-06-10T02:22:22;92221.66;;;15.94;88.42
53041;BME280;39326;42.650;23.248;2023-06-10T02:24:48;92222.09;;;15.93;88.56
53041;BME280;39326;42.650;23.248;2023-06-10T02:27:15;92219.59;;;15.98;88.34
53041;BME280;39326;42.650;23.248;2023-06-10T02:29:40;92221.91;;;16.00;88.28
53041;BME280;39326;42.650;23.248;2023-06-10T02:32:06;92216.09;;;16.02;88.09
53041;BME280;39326;42.650;23.248;2023-06-10T02:34:32;92209.63;;;15.99;87.92
53041;BME280;39326;42.650;23.248;2023-06-10T02:36:59;92212.06;;;15.93;87.94
53041;BME280;39326;42.650;23.248;2023-06-10T02:39:24;92215.00;;;15.99;87.59
53041;BME280;39326;42.650;23.248;2023-06-10T02:41:50;92205.09;;;15.96;87.70
53041;BME280;39326;42.650;23.248;2023-06-10T02:44:15;92209.78;;;15.92;87.82
53041;BME280;39326;42.650;23.248;2023-06-10T02:46:41;92202.38;;;15.96;87.73
53041;BME280;39326;42.650;23.248;2023-06-10T02:49:06;92197.34;;;15.98;87.76
53041;BME280;39326;42.650;23.248;2023-06-10T02:51:31;92194.25;;;15.99;87.62
53041;BME280;39326;42.650;23.248;2023-06-10T02:53:57;92196.19;;;15.99;87.57
53041;BME280;39326;42.650;23.248;2023-06-10T02:56:22;92198.88;;;15.99;87.65
53041;BME280;39326;42.650;23.248;2023-06-10T02:58:48;92194.00;;;15.94;87.71
53041;BME280;39326;42.650;23.248;2023-06-10T03:01:14;92192.81;;;15.95;87.60
53041;BME280;39326;42.650;23.248;2023-06-10T03:03:39;92191.38;;;15.90;87.60
53041;BME280;39326;42.650;23.248;2023-06-10T03:06:09;92192.63;;;15.86;87.71
53041;BME280;39326;42.650;23.248;2023-06-10T03:08:35;92198.13;;;15.82;88.43
53041;BME280;39326;42.650;23.248;2023-06-10T03:11:01;92208.38;;;15.87;88.50
53041;BME280;39326;42.650;23.248;2023-06-10T03:13:26;92208.25;;;15.91;88.50
53041;BME280;39326;42.650;23.248;2023-06-10T03:15:52;92203.25;;;15.93;88.69
53041;BME280;39326;42.650;23.248;2023-06-10T03:18:17;92217.44;;;15.93;89.12
53041;BME280;39326;42.650;23.248;2023-06-10T03:20:43;92205.75;;;15.84;89.86
53041;BME280;39326;42.650;23.248;2023-06-10T03:23:09;92213.00;;;15.87;89.82
53041;BME280;39326;42.650;23.248;2023-06-10T03:25:35;92215.69;;;15.87;89.76
53041;BME280;39326;42.650;23.248;2023-06-10T03:28:00;92214.16;;;15.86;89.86
53041;BME280;39326;42.650;23.248;2023-06-10T03:30:29;92224.91;;;15.86;89.82
53041;BME280;39326;42.650;23.248;2023-06-10T03:32:55;92221.56;;;15.82;90.20
53041;BME280;39326;42.650;23.248;2023-06-10T03:35:20;92232.31;;;15.82;90.34
53041;BME280;39326;42.650;23.248;2023-06-10T03:37:46;92224.69;;;15.80;90.69
53041;BME280;39326;42.650;23.248;2023-06-10T03:40:11;92230.06;;;15.80;90.69
53041;BME280;39326;42.650;23.248;2023-06-10T03:42:37;92231.13;;;15.83;90.30
53041;BME280;39326;42.650;23.248;2023-06-10T03:45:03;92230.81;;;15.81;90.17
53041;BME280;39326;42.650;23.248;2023-06-10T03:47:36;92231.56;;;15.81;90.38
53041;BME280;39326;42.650;23.248;2023-06-10T03:50:05;92225.44;;;15.81;90.41
53041;BME280;39326;42.650;23.248;2023-06-10T03:52:31;92222.75;;;15.81;90.35
53041;BME280;39326;42.650;23.248;2023-06-10T03:54:56;92213.06;;;15.83;90.01
53041;BME280;39326;42.650;23.248;2023-06-10T03:57:22;92218.13;;;15.81;90.11
53041;BME280;39326;42.650;23.248;2023-06-10T03:59:47;92213.50;;;15.82;90.18
53041;BME280;39326;42.650;23.248;2023-06-10T04:02:13;92213.50;;;15.82;90.04
53041;BME280;39326;42.650;23.248;2023-06-10T04:04:38;92198.19;;;15.79;89.91
53041;BME280;39326;42.650;23.248;2023-06-10T04:07:04;92219.44;;;15.89;89.96
53041;BME280;39326;42.650;23.248;2023-06-10T04:09:30;92209.03;;;15.91;89.95
53041;BME280;39326;42.650;23.248;2023-06-10T04:11:56;92223.63;;;15.90;89.84
53041;BME280;39326;42.650;23.248;2023-06-10T04:14:21;92216.00;;;15.89;89.82
53041;BME280;39326;42.650;23.248;2023-06-10T04:16:47;92223.63;;;15.90;89.88
53041;BME280;39326;42.650;23.248;2023-06-10T04:19:12;92212.63;;;15.85;89.92
53041;BME280;39326;42.650;23.248;2023-06-10T04:21:38;92222.84;;;15.93;90.41
53041;BME280;39326;42.650;23.248;2023-06-10T04:24:03;92229.97;;;16.00;90.33
53041;BME280;39326;42.650;23.248;2023-06-10T04:26:29;92231.03;;;16.03;90.61
53041;BME280;39326;42.650;23.248;2023-06-10T04:28:54;92230.72;;;16.01;91.51
53041;BME280;39326;42.650;23.248;2023-06-10T04:31:20;92229.09;;;16.03;91.98
53041;BME280;39326;42.650;23.248;2023-06-10T04:33:46;92226.97;;;16.11;91.69
53041;BME280;39326;42.650;23.248;2023-06-10T04:36:11;92230.34;;;16.15;91.92
53041;BME280;39326;42.650;23.248;2023-06-10T04:38:37;92230.72;;;16.01;93.04
53041;BME280;39326;42.650;23.248;2023-06-10T04:41:02;92223.97;;;16.09;92.72
53041;BME280;39326;42.650;23.248;2023-06-10T04:43:27;92227.44;;;16.22;92.48
53041;BME280;39326;42.650;23.248;2023-06-10T04:45:55;92223.06;;;16.28;92.53
53041;BME280;39326;42.650;23.248;2023-06-10T04:48:21;92227.69;;;16.28;92.51
53041;BME280;39326;42.650;23.248;2023-06-10T04:50:48;92231.13;;;16.28;92.99
53041;BME280;39326;42.650;23.248;2023-06-10T04:53:15;92234.81;;;16.34;92.50
53041;BME280;39326;42.650;23.248;2023-06-10T04:55:40;92232.53;;;16.33;92.67
53041;BME280;39326;42.650;23.248;2023-06-10T04:58:06;92223.81;;;16.29;92.86
53041;BME280;39326;42.650;23.248;2023-06-10T05:00:32;92232.22;;;16.31;92.64
53041;BME280;39326;42.650;23.248;2023-06-10T05:02:57;92222.72;;;16.26;92.95
53041;BME280;39326;42.650;23.248;2023-06-10T05:05:22;92227.97;;;16.17;93.36
53041;BME280;39326;42.650;23.248;2023-06-10T05:07:48;92226.19;;;16.26;92.87
53041;BME280;39326;42.650;23.248;2023-06-10T05:10:13;92227.59;;;16.31;92.38
53041;BME280;39326;42.650;23.248;2023-06-10T05:12:40;92230.84;;;16.39;92.40
53041;BME280;39326;42.650;23.248;2023-06-10T05:15:06;92228.38;;;16.44;92.41
53041;BME280;39326;42.650;23.248;2023-06-10T05:17:32;92223.31;;;16.46;92.47
53041;BME280;39326;42.650;23.248;2023-06-10T05:19:58;92230.19;;;16.47;92.48
53041;BME280;39326;42.650;23.248;2023-06-10T05:22:23;92229.69;;;16.52;92.14
53041;BME280;39326;42.650;23.248;2023-06-10T05:24:50;92221.16;;;16.41;92.52
53041;BME280;39326;42.650;23.248;2023-06-10T05:27:16;92231.91;;;16.41;93.18
53041;BME280;39326;42.650;23.248;2023-06-10T05:29:41;92229.56;;;16.43;92.66
53041;BME280;39326;42.650;23.248;2023-06-10T05:32:07;92233.25;;;16.49;92.55
53041;BME280;39326;42.650;23.248;2023-06-10T05:34:33;92236.72;;;16.63;92.13
53041;BME280;39326;42.650;23.248;2023-06-10T05:36:59;92237.66;;;16.56;92.99
53041;BME280;39326;42.650;23.248;2023-06-10T05:39:25;92237.25;;;16.58;92.79
53041;BME280;39326;42.650;23.248;2023-06-10T05:41:50;92237.25;;;16.58;92.47
53041;BME280;39326;42.650;23.248;2023-06-10T05:44:16;92240.59;;;16.62;92.12
53041;BME280;39326;42.650;23.248;2023-06-10T05:46:41;92237.13;;;16.74;91.56
53041;BME280;39326;42.650;23.248;2023-06-10T05:49:07;92238.47;;;16.82;91.37
53041;BME280;39326;42.650;23.248;2023-06-10T05:51:32;92237.31;;;16.96;91.37
53041;BME280;39326;42.650;23.248;2023-06-10T05:53:57;92237.00;;;17.06;91.39
53041;BME280;39326;42.650;23.248;2023-06-10T05:56:23;92235.59;;;17.15;91.07
53041;BME280;39326;42.650;23.248;2023-06-10T05:58:49;92242.16;;;17.01;91.62
53041;BME280;39326;42.650;23.248;2023-06-10T06:01:15;92245.09;;;17.19;90.95
53041;BME280;39326;42.650;23.248;2023-06-10T06:03:40;92245.63;;;17.27;90.59
53041;BME280;39326;42.650;23.248;2023-06-10T06:06:06;92238.38;;;17.37;90.23
53041;BME280;39326;42.650;23.248;2023-06-10T06:08:31;92245.38;;;17.47;90.22
53041;BME280;39326;42.650;23.248;2023-06-10T06:10:57;92240.50;;;17.54;89.36
53041;BME280;39326;42.650;23.248;2023-06-10T06:13:23;92243.72;;;17.62;88.73
53041;BME280;39326;42.650;23.248;2023-06-10T06:15:48;92242.66;;;17.59;87.33
53041;BME280;39326;42.650;23.248;2023-06-10T06:18:14;92246.56;;;17.58;86.67
53041;BME280;39326;42.650;23.248;2023-06-10T06:20:40;92232.53;;;17.64;86.61
53041;BME280;39326;42.650;23.248;2023-06-10T06:23:05;92238.34;;;17.75;86.85
53041;BME280;39326;42.650;23.248;2023-06-10T06:25:31;92248.91;;;17.82;87.22
53041;BME280;39326;42.650;23.248;2023-06-10T06:27:56;92247.84;;;17.79;86.96
53041;BME280;39326;42.650;23.248;2023-06-10T06:30:21;92249.44;;;17.77;87.84
53041;BME280;39326;42.650;23.248;2023-06-10T06:32:47;92256.44;;;17.87;87.59
53041;BME280;39326;42.650;23.248;2023-06-10T06:35:12;92250.28;;;17.86;87.67
53041;BME280;39326;42.650;23.248;2023-06-10T06:37:38;92254.72;;;17.80;87.21
53041;BME280;39326;42.650;23.248;2023-06-10T06:40:04;92262.41;;;17.69;87.92
53041;BME280;39326;42.650;23.248;2023-06-10T06:42:30;92254.00;;;17.42;88.44
53041;BME280;39326;42.650;23.248;2023-06-10T06:44:55;92253.66;;;17.65;88.76
53041;BME280;39326;42.650;23.248;2023-06-10T06:47:21;92242.00;;;17.81;88.64
53041;BME280;39326;42.650;23.248;2023-06-10T06:49:47;92243.78;;;17.97;87.47
53041;BME280;39326;42.650;23.248;2023-06-10T06:52:13;92239.75;;;18.14;86.38
53041;BME280;39326;42.650;23.248;2023-06-10T06:54:38;92238.31;;;18.22;85.93
53041;BME280;39326;42.650;23.248;2023-06-10T06:57:04;92238.31;;;18.22;84.62
53041;BME280;39326;42.650;23.248;2023-06-10T06:59:29;92240.38;;;18.40;83.74
53041;BME280;39326;42.650;23.248;2023-06-10T07:01:55;92237.53;;;18.44;83.75
53041;BME280;39326;42.650;23.248;2023-06-10T07:04:20;92240.38;;;18.62;83.44
53041;BME280;39326;42.650;23.248;2023-06-10T07:06:48;92236.97;;;18.49;84.21
53041;BME280;39326;42.650;23.248;2023-06-10T07:09:14;92227.28;;;18.51;82.59
53041;BME280;39326;42.650;23.248;2023-06-10T07:11:39;92231.28;;;18.47;81.08
53041;BME280;39326;42.650;23.248;2023-06-10T07:14:06;92234.88;;;18.65;81.40
53041;BME280;39326;42.650;23.248;2023-06-10T07:16:31;92223.66;;;18.54;82.37
53041;BME280;39326;42.650;23.248;2023-06-10T07:18:57;92221.75;;;18.77;82.77
53041;BME280;39326;42.650;23.248;2023-06-10T07:21:22;92226.06;;;19.05;80.49
53041;BME280;39326;42.650;23.248;2023-06-10T07:23:49;92219.59;;;19.03;79.45
53041;BME280;39326;42.650;23.248;2023-06-10T07:26:15;92221.94;;;19.23;78.50
53041;BME280;39326;42.650;23.248;2023-06-10T07:28:41;92220.28;;;19.25;78.35
53041;BME280;39326;42.650;23.248;2023-06-10T07:31:07;92219.13;;;19.35;78.25
53041;BME280;39326;42.650;23.248;2023-06-10T07:33:32;92219.78;;;19.48;76.55
53041;BME280;39326;42.650;23.248;2023-06-10T07:35:58;92225.38;;;19.63;75.37
53041;BME280;39326;42.650;23.248;2023-06-10T07:38:27;92224.38;;;19.70;75.53
53041;BME280;39326;42.650;23.248;2023-06-10T07:40:52;92214.28;;;19.70;74.58
53041;BME280;39326;42.650;23.248;2023-06-10T07:43:18;92220.19;;;19.96;73.86
53041;BME280;39326;42.650;23.248;2023-06-10T07:45:44;92220.47;;;20.26;74.34
53041;BME280;39326;42.650;23.248;2023-06-10T07:48:10;92219.47;;;20.33;73.23
53041;BME280;39326;42.650;23.248;2023-06-10T07:50:35;92223.94;;;20.54;69.68
53041;BME280;39326;42.650;23.248;2023-06-10T07:53:01;92224.06;;;20.78;69.73
53041;BME280;39326;42.650;23.248;2023-06-10T07:55:26;92219.91;;;21.01;68.68
53041;BME280;39326;42.650;23.248;2023-06-10T07:57:53;92220.38;;;20.99;67.63
53041;BME280;39326;42.650;23.248;2023-06-10T08:00:20;92229.03;;;21.31;65.80
53041;BME280;39326;42.650;23.248;2023-06-10T08:02:46;92220.09;;;20.97;66.92
53041;BME280;39326;42.650;23.248;2023-06-10T08:05:11;92226.28;;;20.98;65.95
53041;BME280;39326;42.650;23.248;2023-06-10T08:07:37;92224.91;;;21.12;63.59
53041;BME280;39326;42.650;23.248;2023-06-10T08:10:03;92222.31;;;21.17;64.26
53041;BME280;39326;42.650;23.248;2023-06-10T08:12:29;92229.56;;;21.11;65.58
53041;BME280;39326;42.650;23.248;2023-06-10T08:14:55;92231.88;;;21.37;64.40
53041;BME280;39326;42.650;23.248;2023-06-10T08:17:21;92224.00;;;21.48;62.79
53041;BME280;39326;42.650;23.248;2023-06-10T08:19:46;92222.19;;;21.45;63.80
53041;BME280;39326;42.650;23.248;2023-06-10T08:22:12;92214.00;;;21.54;62.92
53041;BME280;39326;42.650;23.248;2023-06-10T08:24:37;92215.78;;;21.57;61.01
53041;BME280;39326;42.650;23.248;2023-06-10T08:27:03;92214.78;;;21.78;60.71
53041;BME280;39326;42.650;23.248;2023-06-10T08:29:29;92213.72;;;21.85;58.81
53041;BME280;39326;42.650;23.248;2023-06-10T08:31:56;92214.03;;;22.02;58.46
53041;BME280;39326;42.650;23.248;2023-06-10T08:34:21;92207.66;;;21.90;58.76
53041;BME280;39326;42.650;23.248;2023-06-10T08:36:47;92208.50;;;21.72;56.72
53041;BME280;39326;42.650;23.248;2023-06-10T08:39:12;92198.91;;;22.10;57.76
53041;BME280;39326;42.650;23.248;2023-06-10T08:41:42;92202.75;;;22.18;57.24
53041;BME280;39326;42.650;23.248;2023-06-10T08:44:25;92202.22;;;22.29;58.28
53041;BME280;39326;42.650;23.248;2023-06-10T08:46:53;92206.00;;;22.07;55.33
53041;BME280;39326;42.650;23.248;2023-06-10T08:49:21;92204.00;;;21.93;55.32
53041;BME280;39326;42.650;23.248;2023-06-10T08:51:55;92186.47;;;22.18;54.16
53041;BME280;39326;42.650;23.248;2023-06-10T08:54:26;92194.34;;;22.31;55.58
53041;BME280;39326;42.650;23.248;2023-06-10T08:56:54;92175.66;;;22.77;55.82
53041;BME280;39326;42.650;23.248;2023-06-10T08:59:21;92179.13;;;22.63;55.62
53041;BME280;39326;42.650;23.248;2023-06-10T09:01:47;92180.81;;;22.90;55.06
53041;BME280;39326;42.650;23.248;2023-06-10T09:04:13;92177.03;;;23.17;52.63
53041;BME280;39326;42.650;23.248;2023-06-10T09:06:40;92179.75;;;23.17;52.94
53041;BME280;39326;42.650;23.248;2023-06-10T09:09:06;92179.91;;;23.43;53.40
53041;BME280;39326;42.650;23.248;2023-06-10T09:11:32;92175.34;;;23.34;53.03
53041;BME280;39326;42.650;23.248;2023-06-10T09:13:58;92179.38;;;23.24;52.22
53041;BME280;39326;42.650;23.248;2023-06-10T09:16:26;92177.56;;;23.71;51.61
53041;BME280;39326;42.650;23.248;2023-06-10T09:18:52;92179.84;;;23.93;50.91
53041;BME280;39326;42.650;23.248;2023-06-10T09:21:23;92180.59;;;24.14;50.01
53041;BME280;39326;42.650;23.248;2023-06-10T09:23:49;92180.03;;;24.30;51.70
53041;BME280;39326;42.650;23.248;2023-06-10T09:26:15;92169.19;;;24.36;48.07
53041;BME280;39326;42.650;23.248;2023-06-10T09:28:51;92169.19;;;24.15;47.73
53041;BME280;39326;42.650;23.248;2023-06-10T09:31:16;92170.31;;;24.49;46.74
53041;BME280;39326;42.650;23.248;2023-06-10T09:33:47;92166.44;;;24.82;46.25
53041;BME280;39326;42.650;23.248;2023-06-10T09:36:21;92158.84;;;24.97;46.82
53041;BME280;39326;42.650;23.248;2023-06-10T09:38:49;92157.41;;;24.70;46.74
53041;BME280;39326;42.650;23.248;2023-06-10T09:41:16;92148.34;;;24.33;49.82
53041;BME280;39326;42.650;23.248;2023-06-10T09:43:45;92154.91;;;24.46;49.95
53041;BME280;39326;42.650;23.248;2023-06-10T09:46:18;92155.34;;;24.39;49.08
53041;BME280;39326;42.650;23.248;2023-06-10T09:48:46;92160.78;;;23.93;49.85
53041;BME280;39326;42.650;23.248;2023-06-10T09:51:12;92155.00;;;24.06;49.87
53041;BME280;39326;42.650;23.248;2023-06-10T09:53:38;92147.09;;;24.34;48.86
53041;BME280;39326;42.650;23.248;2023-06-10T09:56:04;92144.06;;;24.78;49.30
53041;BME280;39326;42.650;23.248;2023-06-10T09:58:34;92150.59;;;25.18;48.55
53041;BME280;39326;42.650;23.248;2023-06-10T10:01:04;92150.91;;;25.25;47.77
53041;BME280;39326;42.650;23.248;2023-06-10T10:03:30;92144.16;;;24.89;47.63
53041;BME280;39326;42.650;23.248;2023-06-10T10:05:59;92145.97;;;25.29;47.69
53041;BME280;39326;42.650;23.248;2023-06-10T10:08:28;92136.59;;;25.42;46.21
53041;BME280;39326;42.650;23.248;2023-06-10T10:10:56;92124.94;;;25.41;46.00
53041;BME280;39326;42.650;23.248;2023-06-10T10:13:22;92119.81;;;25.23;46.01
53041;BME280;39326;42.650;23.248;2023-06-10T10:15:49;92137.44;;;25.22;47.16
53041;BME280;39326;42.650;23.248;2023-06-10T10:18:17;92140.47;;;25.24;47.85
53041;BME280;39326;42.650;23.248;2023-06-10T10:20:50;92127.00;;;24.83;44.82
53041;BME280;39326;42.650;23.248;2023-06-10T10:26:10;92121.31;;;24.35;44.56
53041;BME280;39326;42.650;23.248;2023-06-10T10:28:45;92119.69;;;24.69;46.58
53041;BME280;39326;42.650;23.248;2023-06-10T10:31:16;92121.53;;;25.15;46.62
53041;BME280;39326;42.650;23.248;2023-06-10T10:36:10;92119.81;;;25.17;45.79
53041;BME280;39326;42.650;23.248;2023-06-10T10:38:36;92123.25;;;25.49;45.11
53041;BME280;39326;42.650;23.248;2023-06-10T10:41:02;92119.34;;;25.61;44.73
53041;BME280;39326;42.650;23.248;2023-06-10T10:43:29;92118.03;;;25.51;44.84
53041;BME280;39326;42.650;23.248;2023-06-10T10:45:59;92112.81;;;25.48;44.19
53041;BME280;39326;42.650;23.248;2023-06-10T10:48:26;92110.13;;;25.59;46.23
53041;BME280;39326;42.650;23.248;2023-06-10T10:50:58;92107.72;;;25.72;45.77
53041;BME280;39326;42.650;23.248;2023-06-10T10:53:24;92103.81;;;25.36;44.75
53041;BME280;39326;42.650;23.248;2023-06-10T10:56:13;92101.91;;;25.16;47.22
53041;BME280;39326;42.650;23.248;2023-06-10T10:58:39;92098.25;;;25.68;44.99
53041;BME280;39326;42.650;23.248;2023-06-10T11:01:12;92102.25;;;25.72;44.02
53041;BME280;39326;42.650;23.248;2023-06-10T11:03:45;92095.47;;;25.56;45.16
53041;BME280;39326;42.650;23.248;2023-06-10T11:06:15;92094.59;;;25.82;43.66
53041;BME280;39326;42.650;23.248;2023-06-10T11:11:25;92095.44;;;26.05;43.78
53041;BME280;39326;42.650;23.248;2023-06-10T11:16:28;92084.78;;;25.53;42.54
53041;BME280;39326;42.650;23.248;2023-06-10T11:18:54;92082.59;;;25.62;43.47
53041;BME280;39326;42.650;23.248;2023-06-10T11:21:20;92076.16;;;25.71;43.88
53041;BME280;39326;42.650;23.248;2023-06-10T11:23:49;92076.78;;;25.92;43.87
53041;BME280;39326;42.650;23.248;2023-06-10T11:31:42;92064.28;;;25.85;43.98
53041;BME280;39326;42.650;23.248;2023-06-10T11:34:08;92058.44;;;26.26;42.85
53041;BME280;39326;42.650;23.248;2023-06-10T11:36:37;92059.22;;;26.55;41.07
53041;BME280;39326;42.650;23.248;2023-06-10T11:39:05;92060.16;;;26.07;41.41
53041;BME280;39326;42.650;23.248;2023-06-10T11:41:32;92061.91;;;26.21;40.70
53041;BME280;39326;42.650;23.248;2023-06-10T11:44:09;92051.22;;;26.12;40.75
53041;BME280;39326;42.650;23.248;2023-06-10T11:46:35;92060.44;;;26.31;42.39
53041;BME280;39326;42.650;23.248;2023-06-10T11:49:01;92059.63;;;25.97;42.30
53041;BME280;39326;42.650;23.248;2023-06-10T11:51:30;92056.28;;;25.71;40.98
53041;BME280;39326;42.650;23.248;2023-06-10T11:53:55;92055.56;;;25.76;40.98
53041;BME280;39326;42.650;23.248;2023-06-10T11:56:22;92064.34;;;25.97;40.40
53041;BME280;39326;42.650;23.248;2023-06-10T11:58:53;92064.78;;;25.84;40.51
53041;BME280;39326;42.650;23.248;2023-06-10T12:01:20;92066.69;;;25.55;41.69
53041;BME280;39326;42.650;23.248;2023-06-10T12:03:47;92055.16;;;25.40;41.69
53041;BME280;39326;42.650;23.248;2023-06-10T12:06:12;92057.84;;;25.29;42.19
53041;BME280;39326;42.650;23.248;2023-06-10T12:08:47;92049.50;;;25.44;43.09
53041;BME280;39326;42.650;23.248;2023-06-10T12:11:12;92060.47;;;25.55;42.41
53041;BME280;39326;42.650;23.248;2023-06-10T12:13:45;92050.97;;;25.45;41.49
53041;BME280;39326;42.650;23.248;2023-06-10T12:16:13;92054.44;;;25.45;43.26
53041;BME280;39326;42.650;23.248;2023-06-10T12:18:38;92053.25;;;25.52;43.21
53041;BME280;39326;42.650;23.248;2023-06-10T12:21:15;92049.22;;;25.42;42.84
53041;BME280;39326;42.650;23.248;2023-06-10T12:24:00;92041.13;;;25.16;42.34
53041;BME280;39326;42.650;23.248;2023-06-10T12:26:36;92040.47;;;24.89;44.90
53041;BME280;39326;42.650;23.248;2023-06-10T12:31:59;92049.31;;;24.78;43.58
53041;BME280;39326;42.650;23.248;2023-06-10T12:34:30;92047.69;;;24.29;45.18
53041;BME280;39326;42.650;23.248;2023-06-10T12:36:55;92036.31;;;24.05;45.63
53041;BME280;39326;42.650;23.248;2023-06-10T12:39:21;92031.66;;;23.85;47.23
53041;BME280;39326;42.650;23.248;2023-06-10T12:41:51;92030.81;;;24.25;47.37
53041;BME280;39326;42.650;23.248;2023-06-10T12:44:16;92037.31;;;24.33;46.28
53041;BME280;39326;42.650;23.248;2023-06-10T12:46:41;92025.00;;;24.43;46.31
53041;BME280;39326;42.650;23.248;2023-06-10T12:49:07;92029.09;;;24.27;46.01
53041;BME280;39326;42.650;23.248;2023-06-10T12:51:32;92028.72;;;24.46;45.97
53041;BME280;39326;42.650;23.248;2023-06-10T12:53:59;92029.38;;;24.29;45.87
53041;BME280;39326;42.650;23.248;2023-06-10T12:56:25;92037.25;;;24.27;45.67
53041;BME280;39326;42.650;23.248;2023-06-10T12:58:51;92043.88;;;24.21;46.12
53041;BME280;39326;42.650;23.248;2023-06-10T13:01:16;92043.63;;;24.19;44.91
53041;BME280;39326;42.650;23.248;2023-06-10T13:03:41;92033.75;;;23.95;43.40
53041;BME280;39326;42.650;23.248;2023-06-10T13:06:07;92038.31;;;23.84;42.30
53041;BME280;39326;42.650;23.248;2023-06-10T13:08:32;92040.44;;;23.94;42.93
53041;BME280;39326;42.650;23.248;2023-06-10T13:10:58;92040.63;;;23.91;43.52